Time;durP1;ratioP1;P1;durP2;ratioP2;P2;SDS_P1;SDS_P2;PMS_P1;PMS_P2;Temp;Humidity;BMP_temperature;BMP_pressure;BME280_temperature;BME280_humidity;BME280_pressure;Samples;Min_cycle;Max_cycle;Signal;HPM_P1;HPM_P2
2021/12/07 00:02:28;;;;;;;8.75;5.22;;;;;;;3.63;79.78;98931.56;4916017;29;20048;-62
2021/12/07 00:04:59;;;;;;;11.98;7.10;;;;;;;3.62;79.66;98934.97;4899126;28;20040;-62
2021/12/07 00:07:32;;;;;;;8.80;5.75;;;;;;;3.61;79.75;98940.91;4915182;28;20175;-62
2021/12/07 00:10:03;;;;;;;11.55;6.50;;;;;;;3.61;79.76;98946.03;4916289;29;20086;-63
2021/12/07 00:12:38;;;;;;;14.90;6.75;;;;;;;3.63;79.83;98949.50;4915776;29;20135;-63
2021/12/07 00:15:12;;;;;;;11.15;6.28;;;;;;;3.65;79.75;98954.66;4914704;28;20074;-63
2021/12/07 00:17:42;;;;;;;9.93;6.10;;;;;;;3.63;79.68;98953.75;4915926;29;20440;-64
2021/12/07 00:20:12;;;;;;;13.57;6.57;;;;;;;3.65;79.69;98963.22;4914508;29;20036;-63
2021/12/07 00:22:48;;;;;;;12.20;5.70;;;;;;;3.65;80.00;98959.78;4915817;29;20483;-62
2021/12/07 00:25:18;;;;;;;13.50;7.07;;;;;;;3.64;80.05;98965.72;4915642;29;20044;-63
2021/12/07 00:27:46;;;;;;;10.77;5.45;;;;;;;3.65;79.47;98962.34;4915720;29;20042;-62
2021/12/07 00:30:16;;;;;;;11.32;5.40;;;;;;;3.65;79.86;98965.78;4915383;29;20032;-62
2021/12/07 00:33:06;;;;;;;13.48;6.45;;;;;;;3.67;79.68;98973.50;4915677;29;20036;-63
2021/12/07 00:35:36;;;;;;;12.65;5.68;;;;;;;3.66;79.96;98979.47;4914614;29;20055;-63
2021/12/07 00:38:18;;;;;;;18.02;6.82;;;;;;;3.65;79.81;98980.28;4914424;28;20179;-63
2021/12/07 00:40:52;;;;;;;11.30;5.35;;;;;;;3.65;79.89;98977.72;4915614;29;20040;-63
2021/12/07 00:43:26;;;;;;;12.85;6.03;;;;;;;3.64;79.77;98989.69;4915874;29;20105;-63
2021/12/07 00:46:01;;;;;;;12.60;6.13;;;;;;;3.65;79.82;98998.22;4914477;29;20415;-63
2021/12/07 00:48:30;;;;;;;14.40;5.75;;;;;;;3.65;80.19;99001.66;4914248;29;20071;-64
2021/12/07 00:51:01;;;;;;;12.55;5.63;;;;;;;3.64;79.73;99002.50;4898344;28;20509;-63
2021/12/07 00:53:32;;;;;;;13.02;6.05;;;;;;;3.64;80.02;99007.63;4914592;28;20131;-63
2021/12/07 00:56:05;;;;;;;9.98;5.95;;;;;;;3.64;79.66;99012.75;4914663;29;20036;-63
2021/12/07 00:58:36;;;;;;;12.13;5.87;;;;;;;3.64;79.49;99020.44;4914237;29;20036;-63
2021/12/07 01:01:15;;;;;;;7.73;5.40;;;;;;;3.63;79.58;99011.00;4914125;29;20047;-63
2021/12/07 01:03:44;;;;;;;9.80;5.43;;;;;;;3.64;79.90;99023.00;4914188;29;20639;-63
2021/12/07 01:06:23;;;;;;;15.35;5.93;;;;;;;3.64;79.37;99020.44;4914134;29;20135;-63
2021/12/07 01:25:27;;;;;;;9.27;5.50;;;;;;;3.60;80.20;99062.16;4915263;29;20409;-62
2021/12/07 01:28:03;;;;;;;7.80;5.03;;;;;;;3.61;80.07;99065.56;4914867;29;20036;-63
2021/12/07 01:30:43;;;;;;;13.18;5.60;;;;;;;3.61;79.71;99063.03;4914822;29;20040;-62
2021/12/07 01:39:32;;;;;;;9.07;5.60;;;;;;;3.61;80.08;99083.53;4914740;29;20072;-63
2021/12/07 02:00:15;;;;;;;12.85;5.82;;;;;;;3.57;79.93;99100.50;4914973;29;20036;-63
2021/12/07 02:02:50;;;;;;;11.32;5.80;;;;;;;3.57;79.95;99113.31;4913255;29;20059;-63
2021/12/07 02:05:23;;;;;;;12.43;6.65;;;;;;;3.58;79.82;99112.50;4913449;28;20047;-63
2021/12/07 02:07:53;;;;;;;22.23;7.22;;;;;;;3.59;80.09;99111.66;4914440;29;20082;-63
2021/12/07 02:10:29;;;;;;;15.10;6.28;;;;;;;3.59;79.89;99113.34;4913298;29;20123;-63
2021/12/07 02:13:07;;;;;;;17.85;6.57;;;;;;;3.58;80.03;99115.06;4914553;29;20044;-63
2021/12/07 02:15:39;;;;;;;13.02;6.43;;;;;;;3.58;79.77;99117.63;4914480;29;20043;-63
2021/12/07 02:18:13;;;;;;;19.70;6.05;;;;;;;3.57;79.66;99118.44;4913988;29;20036;-62
2021/12/07 02:20:39;;;;;;;14.30;6.25;;;;;;;3.57;79.63;99127.84;4913109;29;20047;-63
2021/12/07 02:23:08;;;;;;;16.10;6.93;;;;;;;3.58;80.42;99127.88;4913107;29;20040;-63
2021/12/07 02:25:39;;;;;;;9.10;5.47;;;;;;;3.57;79.63;99123.56;4914163;29;20048;-63
2021/12/07 02:28:14;;;;;;;24.17;6.68;;;;;;;3.60;79.79;99127.91;4914623;29;20040;-62
2021/12/07 02:30:42;;;;;;;12.98;6.22;;;;;;;3.58;80.45;99132.13;4914027;29;20479;-63
2021/12/07 02:33:12;;;;;;;14.77;6.22;;;;;;;3.58;80.10;99138.13;4897958;28;20036;-63
2021/12/07 02:35:42;;;;;;;12.98;6.45;;;;;;;3.60;80.34;99145.84;4917877;29;20044;-63
2021/12/07 02:38:11;;;;;;;19.45;6.00;;;;;;;3.59;79.87;99144.09;4916288;29;20487;-63
2021/12/07 02:40:45;;;;;;;13.95;5.35;;;;;;;3.58;80.00;99143.25;4916038;29;20579;-63
2021/12/07 02:43:13;;;;;;;14.55;5.97;;;;;;;3.59;80.27;99142.44;4917242;29;20040;-63
2021/12/07 02:45:44;;;;;;;14.32;5.38;;;;;;;3.60;79.93;99154.41;4900353;28;20492;-65
2021/12/07 02:48:13;;;;;;;17.15;5.82;;;;;;;3.60;79.61;99158.66;4917228;29;20071;-63
2021/12/07 02:50:43;;;;;;;12.80;5.82;;;;;;;3.59;80.01;99162.03;4915981;29;20040;-63
2021/12/07 02:53:11;;;;;;;14.85;5.15;;;;;;;3.58;80.02;99161.19;4917477;29;20044;-63
2021/12/07 02:55:46;;;;;;;14.93;6.65;;;;;;;3.60;80.10;99171.47;4917265;29;20044;-63
2021/12/07 02:58:19;;;;;;;12.27;5.93;;;;;;;3.59;79.82;99169.72;4917247;29;20071;-64
2021/12/07 03:01:00;;;;;;;20.13;6.20;;;;;;;3.58;79.43;99171.44;4915962;29;20047;-63
2021/12/07 03:03:33;;;;;;;18.23;6.72;;;;;;;3.59;79.84;99187.66;4917889;29;20044;-63
2021/12/07 03:06:33;;;;;;;12.98;5.78;;;;;;;3.58;79.99;99184.25;4916023;29;20072;-62
2021/12/07 03:28:19;;;;;;;14.52;6.20;;;;;;;3.54;80.40;99225.97;4916513;29;20102;-63
2021/12/07 03:30:50;;;;;;;14.13;5.82;;;;;;;3.55;79.70;99231.97;4916702;29;20032;-62
2021/12/07 03:33:20;;;;;;;14.63;6.60;;;;;;;3.54;79.78;99225.97;4916730;29;20040;-63
2021/12/07 03:35:48;;;;;;;13.55;6.05;;;;;;;3.55;80.32;99237.94;4915930;28;20036;-63
2021/12/07 03:38:19;;;;;;;12.93;5.85;;;;;;;3.54;79.99;99236.22;4916219;29;20044;-63
2021/12/07 03:40:45;;;;;;;9.50;5.35;;;;;;;3.54;80.12;99231.09;4915357;29;20037;-63
2021/12/07 03:43:15;;;;;;;14.65;5.53;;;;;;;3.54;80.00;99236.22;4915181;29;20044;-63
2021/12/07 03:45:46;;;;;;;11.73;4.93;;;;;;;3.55;80.05;99247.34;4916028;29;20032;-63
2021/12/07 03:48:19;;;;;;;15.68;6.00;;;;;;;3.55;80.23;99242.22;4899904;28;20044;-62
2021/12/07 03:50:47;;;;;;;10.60;5.20;;;;;;;3.55;80.03;99244.78;4899214;28;20032;-63
2021/12/07 03:53:15;;;;;;;16.58;6.50;;;;;;;3.54;79.91;99243.91;4900022;28;20056;-63
2021/12/07 03:55:52;;;;;;;12.23;4.72;;;;;;;3.56;79.52;99254.22;4915055;29;20043;-62
2021/12/07 03:58:19;;;;;;;11.18;5.63;;;;;;;3.56;79.70;99252.50;4915237;29;20067;-63
2021/12/07 04:00:50;;;;;;;10.50;5.00;;;;;;;3.56;79.70;99259.34;4916165;29;20063;-63
2021/12/07 04:03:24;;;;;;;16.70;6.20;;;;;;;3.56;79.52;99267.88;4916215;29;20054;-62
2021/12/07 04:05:57;;;;;;;12.20;5.18;;;;;;;3.56;79.66;99262.75;4916133;29;20047;-62
2021/12/07 04:08:26;;;;;;;17.05;6.25;;;;;;;3.55;80.01;99262.72;4915056;28;20048;-62
2021/12/07 04:10:53;;;;;;;9.63;5.18;;;;;;;3.55;79.92;99261.00;4915033;29;20044;-63
2021/12/07 04:13:21;;;;;;;12.63;4.70;;;;;;;3.55;79.73;99271.25;4915949;29;20047;-63
2021/12/07 04:15:54;;;;;;;14.20;4.80;;;;;;;3.56;80.04;99274.72;4915917;29;20102;-62
2021/12/07 04:18:23;;;;;;;9.95;5.00;;;;;;;3.55;80.22;99270.41;4915305;28;20405;-62
2021/12/07 04:20:49;;;;;;;9.00;4.47;;;;;;;3.55;79.96;99276.38;4898940;29;20044;-63
2021/12/07 04:23:23;;;;;;;14.23;5.72;;;;;;;3.55;79.99;99284.06;4915860;29;20068;-62
2021/12/07 04:25:55;;;;;;;11.70;5.72;;;;;;;3.57;79.91;99285.00;4915942;29;20055;-62
2021/12/07 04:28:24;;;;;;;12.70;4.75;;;;;;;3.57;80.00;99282.44;4898870;28;20126;-63
2021/12/07 04:30:54;;;;;;;10.85;4.75;;;;;;;3.56;80.38;99277.28;4915703;29;20044;-63
2021/12/07 04:33:25;;;;;;;10.52;5.43;;;;;;;3.55;80.36;99278.94;4899020;28;20068;-63
2021/12/07 04:35:58;;;;;;;8.40;4.47;;;;;;;3.55;79.79;99283.22;4915700;29;20110;-63
2021/12/07 04:38:31;;;;;;;11.25;4.72;;;;;;;3.55;80.12;99294.31;4898839;28;20040;-63
2021/12/07 04:41:05;;;;;;;9.65;4.30;;;;;;;3.54;80.16;99305.41;4898566;28;20102;-62
2021/12/07 04:43:31;;;;;;;;;;;;;;;3.54;80.46;99300.28;4914890;29;20064;-63
2021/12/07 04:46:29;;;;;;;6.80;4.65;;;;;;;3.55;80.35;99293.47;4914515;29;20382;-62
2021/12/07 04:59:50;;;;;;;8.57;4.68;;;;;;;3.54;80.10;99301.97;4915548;29;20093;-63
2021/12/07 05:02:18;;;;;;;9.38;5.13;;;;;;;3.54;80.34;99309.66;4898065;28;20049;-63
2021/12/07 05:04:49;;;;;;;14.05;6.30;;;;;;;3.53;80.02;99315.59;4898605;28;20135;-63
2021/12/07 05:07:31;;;;;;;12.73;4.67;;;;;;;3.54;79.63;99318.22;4898539;28;20040;-63
2021/12/07 05:12:32;;;;;;;13.75;5.53;;;;;;;3.51;80.24;99325.78;4914265;28;20075;-63
2021/12/07 05:15:16;;;;;;;16.17;5.70;;;;;;;3.50;80.38;99329.19;4914197;29;20079;-63
2021/12/07 05:18:21;;;;;;;11.20;5.07;;;;;;;3.50;80.26;99326.63;4898530;28;20047;-63
2021/12/07 05:40:00;;;;;;;15.27;5.63;;;;;;;3.47;79.81;99352.16;4914918;29;20492;-62
2021/12/07 05:42:26;;;;;;;13.50;5.32;;;;;;;3.49;79.74;99348.81;4913564;29;20044;-63
2021/12/07 05:45:00;;;;;;;10.20;4.97;;;;;;;3.49;79.84;99345.38;4915050;29;20036;-63
2021/12/07 05:47:31;;;;;;;12.77;5.35;;;;;;;3.47;80.03;99347.03;4897730;28;20044;-63
2021/12/07 05:50:02;;;;;;;14.57;5.05;;;;;;;3.46;80.49;99356.38;4897955;28;20033;-63
2021/12/07 05:52:29;;;;;;;14.25;5.78;;;;;;;3.47;80.16;99355.56;4914530;29;20040;-63
2021/12/07 05:55:00;;;;;;;14.20;4.55;;;;;;;3.47;80.08;99360.69;4914705;29;20049;-63
2021/12/07 05:57:28;;;;;;;14.02;4.90;;;;;;;3.48;79.55;99361.59;4897784;28;20044;-62
2021/12/07 05:59:54;;;;;;;14.98;4.68;;;;;;;3.48;79.88;99364.13;4913226;28;20074;-62
2021/12/07 06:02:19;;;;;;;14.55;5.38;;;;;;;3.49;80.11;99365.88;4912872;29;20044;-63
2021/12/07 06:04:49;;;;;;;10.90;4.88;;;;;;;3.48;79.96;99366.72;4913158;28;20048;-63
2021/12/07 06:07:20;;;;;;;12.23;4.75;;;;;;;3.48;79.85;99380.38;4898241;28;20040;-63
2021/12/07 06:09:53;;;;;;;10.65;4.90;;;;;;;3.47;79.88;99391.44;4901145;28;20052;-62
2021/12/07 06:12:19;;;;;;;12.95;5.05;;;;;;;3.48;79.78;99398.31;4900804;28;20072;-62
2021/12/07 06:14:46;;;;;;;19.13;4.57;;;;;;;3.47;79.77;99396.56;4917679;29;20071;-63
2021/12/07 06:17:12;;;;;;;14.80;4.47;;;;;;;3.48;80.18;99397.44;4917941;29;20491;-63
2021/12/07 06:19:40;;;;;;;11.98;4.60;;;;;;;3.46;79.94;99407.63;4917230;28;20442;-63
2021/12/07 06:22:09;;;;;;;13.50;4.60;;;;;;;3.46;80.17;99401.66;4917631;29;20085;-63
2021/12/07 06:24:34;;;;;;;13.75;5.32;;;;;;;3.44;80.32;99396.44;4916431;29;20506;-63
2021/12/07 06:27:02;;;;;;;13.95;5.00;;;;;;;3.42;79.91;99398.13;4917583;29;20032;-63
2021/12/07 06:29:28;;;;;;;15.02;5.97;;;;;;;3.42;80.08;99398.13;4917513;29;20040;-63
2021/12/07 06:31:58;;;;;;;11.27;5.45;;;;;;;3.43;80.11;99404.09;4916148;28;20047;-63
2021/12/07 06:34:24;;;;;;;19.05;5.10;;;;;;;3.43;80.02;99401.53;4900905;28;20045;-63
2021/12/07 06:36:50;;;;;;;11.88;4.78;;;;;;;3.42;79.73;99403.25;4917304;29;20044;-63
2021/12/07 06:39:18;;;;;;;20.83;5.20;;;;;;;3.42;80.19;99386.97;4916218;29;20036;-63
2021/12/07 06:41:50;;;;;;;9.07;4.50;;;;;;;3.42;80.56;99405.81;4900377;28;20495;-63
2021/12/07 06:44:19;;;;;;;12.20;5.93;;;;;;;3.41;80.01;99392.91;4900308;28;20483;-63
2021/12/07 06:46:48;;;;;;;10.60;5.35;;;;;;;3.39;79.88;99395.44;4917461;29;20070;-63
2021/12/07 06:49:20;;;;;;;15.23;5.97;;;;;;;3.38;79.98;99392.81;4900618;29;20044;-63
2021/12/07 06:51:46;;;;;;;11.63;4.93;;;;;;;3.37;79.77;99391.94;4917366;29;20037;-63
2021/12/07 06:54:12;;;;;;;18.15;7.07;;;;;;;3.38;79.69;99400.50;4915965;28;20086;-62
2021/12/07 06:56:40;;;;;;;12.07;5.10;;;;;;;3.37;79.92;99402.19;4915927;29;20036;-62
2021/12/07 06:59:13;;;;;;;12.90;5.00;;;;;;;3.37;80.05;99393.63;4916256;28;20072;-62
2021/12/07 07:01:41;;;;;;;12.30;6.50;;;;;;;3.35;79.92;99391.03;4916825;29;20082;-62
2021/12/07 07:04:14;;;;;;;16.27;6.15;;;;;;;3.32;80.22;99391.78;4900078;28;20036;-62
2021/12/07 07:06:42;;;;;;;20.40;6.30;;;;;;;3.31;79.77;99399.41;4900227;28;20036;-63
2021/12/07 07:09:09;;;;;;;17.15;5.88;;;;;;;3.31;79.44;99396.84;4899945;28;20036;-63
2021/12/07 07:11:38;;;;;;;20.85;6.75;;;;;;;3.30;80.32;99398.56;4899649;28;20072;-63
2021/12/07 07:14:03;;;;;;;16.17;6.60;;;;;;;3.32;80.02;99390.91;4916988;29;20044;-62
2021/12/07 07:16:35;;;;;;;17.38;5.93;;;;;;;3.29;79.98;99386.56;4916154;29;20048;-62
2021/12/07 07:19:06;;;;;;;14.57;5.80;;;;;;;3.31;79.59;99386.59;4915975;29;20127;-62
2021/12/07 07:21:36;;;;;;;17.15;6.82;;;;;;;3.29;80.01;99380.56;4916729;29;20048;-62
2021/12/07 07:24:05;;;;;;;13.80;6.22;;;;;;;3.26;79.85;99386.44;4916109;29;20036;-63
2021/12/07 07:26:36;;;;;;;14.60;6.38;;;;;;;3.25;79.81;99383.84;4916984;29;20051;-63
2021/12/07 07:29:04;;;;;;;14.85;6.50;;;;;;;3.23;79.76;99383.78;4900465;28;20125;-63
2021/12/07 07:31:30;;;;;;;10.23;5.90;;;;;;;3.24;80.36;99388.09;4899740;28;20488;-63
2021/12/07 07:33:56;;;;;;;11.55;5.72;;;;;;;3.24;80.36;99385.53;4916485;29;20047;-63
2021/12/07 07:36:26;;;;;;;15.10;5.18;;;;;;;3.24;79.81;99393.19;4915242;29;20036;-63
2021/12/07 07:38:54;;;;;;;14.23;5.55;;;;;;;3.25;80.13;99394.09;4915662;29;20627;-63
2021/12/07 07:41:22;;;;;;;22.13;6.57;;;;;;;3.23;79.62;99396.56;4916688;29;20392;-63
2021/12/07 07:43:56;;;;;;;16.23;6.18;;;;;;;3.23;80.00;99399.16;4916288;29;20044;-63
2021/12/07 07:46:26;;;;;;;15.80;5.20;;;;;;;3.22;79.98;99401.66;4899645;28;20127;-63
2021/12/07 07:48:58;;;;;;;8.98;4.38;;;;;;;3.22;79.65;99402.53;4915232;29;20132;-62
2021/12/07 07:51:26;;;;;;;23.00;5.75;;;;;;;3.18;79.96;99401.53;4899356;28;20499;-62
2021/12/07 07:53:56;;;;;;;13.38;5.70;;;;;;;3.18;79.38;99405.81;4899376;28;20445;-62
2021/12/07 07:56:29;;;;;;;16.10;4.35;;;;;;;3.17;79.58;99393.81;4899359;28;20036;-62
2021/12/07 07:58:58;;;;;;;14.68;5.53;;;;;;;3.14;79.84;99398.81;4916334;29;20040;-62
2021/12/07 08:01:29;;;;;;;12.68;4.82;;;;;;;3.12;79.59;99396.19;4898809;28;20048;-63
2021/12/07 08:03:56;;;;;;;13.00;5.40;;;;;;;3.12;79.86;99396.19;4916430;29;20047;-63
2021/12/07 08:06:24;;;;;;;12.48;5.05;;;;;;;3.12;79.89;99411.56;4899226;28;20032;-63
2021/12/07 08:08:50;;;;;;;19.70;6.05;;;;;;;3.12;79.72;99413.25;4916124;29;20495;-63
2021/12/07 08:11:22;;;;;;;12.20;6.03;;;;;;;3.11;79.45;99414.97;4899285;28;20063;-63
2021/12/07 08:13:52;;;;;;;14.95;6.22;;;;;;;3.12;80.33;99414.13;4899714;28;20032;-63
2021/12/07 08:16:20;;;;;;;14.23;5.68;;;;;;;3.13;79.96;99420.13;4899233;28;20163;-63
2021/12/07 08:18:50;;;;;;;17.33;6.90;;;;;;;3.13;79.80;99423.53;4915920;29;20044;-62
2021/12/07 08:21:22;;;;;;;12.65;5.18;;;;;;;3.11;79.77;99425.22;4914654;29;20479;-63
2021/12/07 08:23:50;;;;;;;14.40;5.28;;;;;;;3.11;79.83;99414.06;4915796;29;20513;-63
2021/12/07 08:26:25;;;;;;;12.05;5.50;;;;;;;3.11;79.88;99427.78;4915691;29;20450;-62
2021/12/07 08:28:55;;;;;;;14.90;5.80;;;;;;;3.10;79.88;99417.44;4914818;28;20039;-63
2021/12/07 08:31:25;;;;;;;21.60;4.82;;;;;;;3.08;79.87;99414.84;4913657;29;20400;-63
2021/12/07 08:33:55;;;;;;;24.00;5.05;;;;;;;3.09;79.83;99415.72;4914383;29;20037;-63
2021/12/07 08:36:24;;;;;;;19.63;5.30;;;;;;;3.10;79.39;99418.34;4915904;29;20051;-63
2021/12/07 08:38:52;;;;;;;13.98;6.03;;;;;;;3.08;79.88;99419.97;4915620;29;20043;-63
2021/12/07 08:41:25;;;;;;;11.70;4.57;;;;;;;3.08;79.86;99419.09;4915582;29;20476;-63
2021/12/07 08:43:51;;;;;;;16.40;5.65;;;;;;;3.09;79.76;99415.72;4899251;28;20039;-63
2021/12/07 08:46:22;;;;;;;17.92;5.40;;;;;;;3.07;79.78;99407.97;4914524;29;20040;-63
2021/12/07 08:48:47;;;;;;;14.15;4.47;;;;;;;3.08;79.78;99406.28;4898906;28;20090;-63
2021/12/07 08:51:20;;;;;;;17.08;5.85;;;;;;;3.09;79.85;99390.09;4915369;29;20508;-63
2021/12/07 08:54:24;;;;;;;10.18;3.85;;;;;;;3.09;80.02;99380.75;4915432;29;20488;-63
2021/12/07 08:59:40;;;;;;;18.35;6.38;;;;;;;3.07;80.07;99381.50;4915488;29;20044;-62
2021/12/07 09:02:11;;;;;;;17.42;5.82;;;;;;;3.04;79.86;99364.34;4898196;28;20086;-63
2021/12/07 09:04:37;;;;;;;15.82;6.28;;;;;;;3.06;79.81;99365.28;4915294;29;20067;-62
2021/12/07 09:07:05;;;;;;;24.50;6.65;;;;;;;3.04;79.65;99352.41;4913996;28;20071;-63
2021/12/07 09:09:32;;;;;;;16.00;5.97;;;;;;;3.06;79.66;99362.72;4898315;28;20036;-63
2021/12/07 09:12:00;;;;;;;15.95;5.63;;;;;;;3.05;79.83;99369.50;4915075;29;20123;-62
2021/12/07 09:14:27;;;;;;;16.45;6.25;;;;;;;3.05;79.28;99366.09;4913988;29;20040;-62
2021/12/07 09:16:58;;;;;;;18.90;5.43;;;;;;;3.06;79.39;99362.72;4898127;28;20131;-63
2021/12/07 09:19:24;;;;;;;12.65;5.35;;;;;;;3.06;79.25;99352.47;4913920;29;20040;-63
2021/12/07 09:21:52;;;;;;;15.60;4.60;;;;;;;3.08;79.60;99357.63;4914183;29;20047;-63
2021/12/07 09:24:18;;;;;;;18.00;5.13;;;;;;;3.08;80.15;99355.06;4914862;29;20090;-63
2021/12/07 09:26:43;;;;;;;20.50;5.22;;;;;;;3.08;80.05;99363.63;4898069;28;20079;-63
2021/12/07 09:29:17;;;;;;;15.13;5.18;;;;;;;3.09;79.48;99356.81;4914902;29;20048;-64
2021/12/07 09:31:42;;;;;;;18.00;5.07;;;;;;;3.08;79.92;99363.63;4915288;29;20040;-63
2021/12/07 09:34:16;;;;;;;10.95;4.68;;;;;;;3.10;79.61;99363.69;4914166;29;20107;-63
2021/12/07 09:36:42;;;;;;;20.55;5.05;;;;;;;3.09;79.57;99362.81;4914769;29;20036;-63
2021/12/07 09:39:18;;;;;;;11.15;4.65;;;;;;;3.09;79.62;99347.47;4914815;29;20071;-63
2021/12/07 09:41:46;;;;;;;13.82;5.68;;;;;;;3.12;79.16;99364.59;4897479;28;20408;-64
2021/12/07 09:44:15;;;;;;;13.57;4.57;;;;;;;3.12;79.86;99364.59;4914181;29;20040;-63
2021/12/07 09:46:42;;;;;;;20.88;5.32;;;;;;;3.12;79.38;99369.72;4897788;28;20047;-63
2021/12/07 09:49:10;;;;;;;14.23;4.13;;;;;;;3.11;79.87;99371.44;4898440;28;20044;-62
2021/12/07 09:51:36;;;;;;;22.55;5.40;;;;;;;3.12;79.20;99375.72;4913289;29;20039;-62
2021/12/07 09:54:09;;;;;;;11.32;3.88;;;;;;;3.12;79.73;99369.72;4897638;28;20459;-62
2021/12/07 09:56:36;;;;;;;17.20;4.60;;;;;;;3.12;80.14;99365.47;4897645;28;20505;-62
2021/12/07 09:59:06;;;;;;;15.98;4.32;;;;;;;3.14;79.73;99368.97;4914582;29;20503;-62
2021/12/07 10:01:31;;;;;;;10.90;4.15;;;;;;;3.15;79.74;99364.72;4912953;29;20558;-63
2021/12/07 10:04:00;;;;;;;9.15;4.55;;;;;;;3.15;79.62;99363.03;4914166;29;20029;-63
2021/12/07 10:06:29;;;;;;;16.73;5.00;;;;;;;3.17;80.18;99361.38;4914404;29;20044;-62
2021/12/07 10:09:00;;;;;;;11.45;3.72;;;;;;;3.18;79.36;99365.69;4914178;29;20044;-63
2021/12/07 10:11:27;;;;;;;17.23;5.17;;;;;;;3.18;79.56;99362.28;4913517;28;20071;-62
2021/12/07 10:14:01;;;;;;;15.82;5.13;;;;;;;3.19;79.98;99357.19;4914369;29;20052;-64
2021/12/07 10:16:28;;;;;;;18.27;4.57;;;;;;;3.19;79.49;99356.34;4897914;28;20040;-63
2021/12/07 10:18:55;;;;;;;15.75;4.32;;;;;;;3.18;79.59;99345.22;4913164;29;20044;-63
2021/12/07 10:21:24;;;;;;;17.33;4.70;;;;;;;3.20;80.17;99342.69;4914562;29;20040;-63
2021/12/07 10:24:07;;;;;;;11.02;4.22;;;;;;;3.22;80.17;99323.13;4897313;28;20067;-62
2021/12/07 10:26:43;;;;;;;23.80;6.35;;;;;;;3.23;79.81;99318.88;4912989;29;20396;-63
2021/12/07 10:29:12;;;;;;;10.73;3.83;;;;;;;3.26;80.09;99314.72;4914363;29;20041;-62
2021/12/07 10:31:49;;;;;;;18.98;4.57;;;;;;;3.28;79.88;99305.41;4897196;28;20496;-62
2021/12/07 10:34:24;;;;;;;10.45;4.55;;;;;;;3.30;79.90;99298.66;4897238;28;20113;-63
2021/12/07 10:36:52;;;;;;;13.68;6.18;;;;;;;3.33;79.96;99293.66;4912938;29;20583;-62
2021/12/07 10:39:38;;;;;;;22.58;5.70;;;;;;;3.36;79.94;99282.63;4897604;28;20442;-63
2021/12/07 10:42:10;;;;;;;12.32;4.72;;;;;;;3.39;79.90;99281.84;4912957;28;20063;-62
2021/12/07 10:44:40;;;;;;;16.38;5.20;;;;;;;3.41;79.81;99286.22;4914012;29;20123;-63
2021/12/07 10:47:08;;;;;;;17.77;5.45;;;;;;;3.43;79.47;99271.72;4913462;28;20048;-63
2021/12/07 10:49:46;;;;;;;12.98;4.88;;;;;;;3.45;79.65;99267.53;4913907;29;20565;-63
2021/12/07 10:52:11;;;;;;;14.15;4.05;;;;;;;3.48;79.70;99261.66;4897320;28;20040;-62
2021/12/07 10:55:04;;;;;;;8.93;3.80;;;;;;;3.52;79.39;99263.47;4915298;29;20570;-63
2021/12/07 10:57:51;;;;;;;12.85;5.28;;;;;;;3.54;79.52;99249.03;4917652;29;20099;-63
2021/12/07 11:00:33;;;;;;;21.13;4.72;;;;;;;3.57;79.73;99253.41;4915935;29;20405;-63
2021/12/07 11:03:07;;;;;;;9.63;4.15;;;;;;;3.60;79.58;99245.78;4915507;29;20056;-62
2021/12/07 11:05:39;;;;;;;10.43;4.68;;;;;;;3.62;80.12;99232.22;4900090;28;20051;-63
2021/12/07 11:08:06;;;;;;;14.75;5.00;;;;;;;3.66;80.11;99225.47;4915654;29;20040;-63
2021/12/07 11:10:39;;;;;;;13.05;4.75;;;;;;;3.68;79.48;99216.16;4915625;28;20043;-63
2021/12/07 11:13:24;;;;;;;14.38;4.85;;;;;;;3.69;80.05;99215.31;4900216;28;20040;-63
2021/12/07 11:16:03;;;;;;;;;;;;;;;3.72;79.88;99209.41;4916168;29;20047;-63
2021/12/07 11:18:36;;;;;;;9.25;3.95;;;;;;;3.74;80.00;99202.66;4899911;28;19926;-64
2021/12/07 11:21:08;;;;;;;13.20;4.70;;;;;;;3.74;79.28;99198.38;4899828;28;20135;-64
2021/12/07 11:23:40;;;;;;;9.88;3.85;;;;;;;3.77;79.50;99198.47;4900042;28;20048;-64
2021/12/07 11:31:26;;;;;;;16.05;4.60;;;;;;;3.83;79.25;99194.34;4916336;29;20032;-63
2021/12/07 11:34:12;;;;;;;13.27;4.65;;;;;;;3.84;79.23;99184.13;4899593;28;20044;-63
2021/12/07 11:36:45;;;;;;;12.38;3.95;;;;;;;3.86;79.31;99197.03;4916276;29;20488;-63
2021/12/07 11:39:48;;;;;;;15.10;4.53;;;;;;;3.86;79.71;99182.50;4915410;29;20084;-63
2021/12/07 11:42:22;;;;;;;6.93;3.45;;;;;;;3.88;79.00;99185.97;4899482;28;20554;-63
2021/12/07 11:44:53;;;;;;;14.57;4.07;;;;;;;3.89;79.48;99190.28;4900029;28;20032;-64
2021/12/07 11:47:36;;;;;;;14.23;4.57;;;;;;;3.90;79.41;99186.91;4915147;28;20151;-63
2021/12/07 11:50:36;;;;;;;13.95;4.70;;;;;;;3.92;79.34;99181.78;4916642;29;20063;-63
2021/12/07 11:53:12;;;;;;;12.80;4.03;;;;;;;3.94;79.75;99180.16;4916185;29;20082;-63
2021/12/07 11:55:43;;;;;;;11.60;5.20;;;;;;;3.95;79.55;99179.31;4915054;28;20048;-63
2021/12/07 11:58:09;;;;;;;9.95;4.32;;;;;;;3.97;79.05;99181.09;4899997;28;20044;-62
2021/12/07 12:00:43;;;;;;;9.63;4.65;;;;;;;3.98;79.67;99174.28;4916380;29;20040;-62
2021/12/07 12:03:16;;;;;;;13.02;3.60;;;;;;;4.00;79.64;99164.06;4915079;29;20044;-63
2021/12/07 12:05:43;;;;;;;13.05;4.88;;;;;;;4.01;79.14;99158.13;4898983;29;20091;-63
2021/12/07 12:08:10;;;;;;;13.95;4.85;;;;;;;4.02;79.32;99163.31;4899108;29;20036;-63
2021/12/07 12:10:45;;;;;;;11.65;3.88;;;;;;;4.02;79.25;99155.63;4914946;29;20044;-64
2021/12/07 12:13:15;;;;;;;11.75;3.83;;;;;;;4.03;79.44;99144.53;4914570;29;20028;-63
2021/12/07 12:16:01;;;;;;;11.15;3.40;;;;;;;4.02;79.25;99145.34;4898994;28;20055;-63
2021/12/07 12:18:34;;;;;;;9.77;4.68;;;;;;;4.03;79.12;99139.41;4914858;28;20047;-62
2021/12/07 12:21:14;;;;;;;18.55;5.13;;;;;;;4.05;79.33;99137.72;4916178;29;20067;-63
2021/12/07 12:24:12;;;;;;;9.95;4.10;;;;;;;4.05;79.38;99134.31;4899338;28;20131;-62
2021/12/07 12:26:45;;;;;;;12.52;4.30;;;;;;;4.05;79.41;99124.91;4914690;29;20036;-62
2021/12/07 12:29:16;;;;;;;8.40;4.00;;;;;;;4.05;79.17;99126.63;4915845;29;20048;-63
2021/12/07 12:31:50;;;;;;;16.58;4.10;;;;;;;4.04;79.45;99117.19;4899362;28;20036;-62
2021/12/07 12:34:40;;;;;;;12.13;3.88;;;;;;;4.04;79.22;99109.50;4899210;28;20131;-63
2021/12/07 12:37:21;;;;;;;16.35;4.65;;;;;;;4.04;78.86;99096.66;4915651;29;20565;-63
2021/12/07 12:39:56;;;;;;;13.70;4.20;;;;;;;4.02;78.73;99080.38;4915151;29;20044;-63
2021/12/07 12:42:35;;;;;;;10.98;4.70;;;;;;;4.03;78.97;99071.84;4898515;29;20040;-62
2021/12/07 12:45:23;;;;;;;19.50;4.10;;;;;;;4.01;79.26;99056.44;4914838;29;20044;-62
2021/12/07 12:48:01;;;;;;;10.88;5.03;;;;;;;4.01;79.12;99038.50;4914654;28;20044;-63
2021/12/07 12:50:55;;;;;;;14.80;4.22;;;;;;;4.01;78.93;99032.47;4899123;28;20044;-62
2021/12/07 12:53:30;;;;;;;11.85;4.68;;;;;;;4.00;79.36;99023.03;4912515;28;20511;-63
2021/12/07 12:56:07;;;;;;;10.07;4.00;;;;;;;3.99;79.15;99016.19;4898630;28;20094;-62
2021/12/07 12:58:41;;;;;;;15.70;4.70;;;;;;;3.99;79.57;99003.34;4915619;29;20079;-62
2021/12/07 13:01:30;;;;;;;10.45;4.40;;;;;;;4.00;79.20;99005.09;4898286;28;20044;-62
2021/12/07 13:04:08;;;;;;;12.18;4.45;;;;;;;3.98;79.20;98984.56;4914262;29;20044;-63
2021/12/07 13:06:45;;;;;;;12.93;3.42;;;;;;;3.99;78.87;98985.41;4914122;28;20043;-63
2021/12/07 13:09:20;;;;;;;12.32;4.13;;;;;;;3.97;79.45;98959.75;4915509;29;20123;-63
2021/12/07 13:11:59;;;;;;;7.90;3.90;;;;;;;3.98;79.08;98961.47;4915102;29;20040;-63
2021/12/07 13:14:28;;;;;;;6.65;3.38;;;;;;;3.98;79.03;98969.19;4913986;28;20134;-62
2021/12/07 13:17:04;;;;;;;10.88;4.40;;;;;;;3.99;78.86;98964.91;4913420;29;20102;-63
2021/12/07 13:19:50;;;;;;;7.38;3.78;;;;;;;3.97;79.36;98960.59;4897949;28;20044;-63
2021/12/07 13:22:20;;;;;;;12.50;4.47;;;;;;;3.97;78.84;98970.00;4914168;28;20032;-62
2021/12/07 13:24:48;;;;;;;9.05;3.65;;;;;;;3.96;79.02;98969.16;4914962;29;20090;-63
2021/12/07 13:27:19;;;;;;;12.80;3.90;;;;;;;3.96;79.30;98958.91;4898243;28;20119;-63
2021/12/07 13:29:51;;;;;;;8.82;3.67;;;;;;;3.95;78.82;98953.72;4914032;28;20491;-62
2021/12/07 13:32:22;;;;;;;13.10;5.28;;;;;;;3.94;79.18;98954.53;4898192;28;20094;-62
2021/12/07 13:35:05;;;;;;;5.63;3.63;;;;;;;3.93;78.61;98957.94;4897797;28;20036;-63
2021/12/07 13:37:48;;;;;;;18.27;4.40;;;;;;;3.93;79.04;98989.56;4914685;29;20040;-64
2021/12/07 13:40:23;;;;;;;15.40;5.05;;;;;;;3.93;79.22;98955.38;4914798;29;20090;-64